createdAt,value
2022-08-14T00:00:42.815Z,6.90
2022-08-14T00:01:42.809Z,7.30
2022-08-14T00:02:43.027Z,5.10
2022-08-14T00:03:42.808Z,7.30
2022-08-14T00:04:45.084Z,6.10
2022-08-14T00:05:44.308Z,5.50
2022-08-14T00:06:42.807Z,4.80
2022-08-14T00:07:42.812Z,8.60
2022-08-14T00:08:43.779Z,7.30
2022-08-14T00:09:55.989Z,5.70
2022-08-14T00:10:52.533Z,7.20
2022-08-14T00:11:43.704Z,6.00
2022-08-14T00:12:42.806Z,5.90
2022-08-14T00:13:42.808Z,7.70
2022-08-14T00:14:42.857Z,5.80
2022-08-14T00:15:44.297Z,5.50
2022-08-14T00:16:45.146Z,7.60
2022-08-14T00:17:48.053Z,5.70
2022-08-14T00:19:06.362Z,5.50
2022-08-14T00:19:42.819Z,4.90
2022-08-14T00:20:43.205Z,6.10
2022-08-14T00:21:42.816Z,7.00
2022-08-14T00:22:56.075Z,7.20
2022-08-14T00:23:42.802Z,6.20
2022-08-14T00:24:42.904Z,6.30
2022-08-14T00:25:42.937Z,7.40
2022-08-14T00:26:42.801Z,6.10
2022-08-14T00:27:42.804Z,5.70
2022-08-14T00:28:42.803Z,5.60
2022-08-14T00:29:42.957Z,5.90
2022-08-14T00:30:42.909Z,5.60
2022-08-14T00:31:45.657Z,8.30
2022-08-14T00:32:56.078Z,6.20
2022-08-14T00:33:51.779Z,6.70
2022-08-14T00:34:46.715Z,7.20
2022-08-14T00:36:37.178Z,8.10
2022-08-14T00:36:48.459Z,7.00
2022-08-14T00:37:42.798Z,7.20
2022-08-14T00:38:42.799Z,6.40
2022-08-14T00:39:42.893Z,5.10
2022-08-14T00:40:46.089Z,7.60
2022-08-14T00:41:42.798Z,7.10
2022-08-14T00:42:55.484Z,4.90
2022-08-14T00:43:43.221Z,6.50
2022-08-14T00:44:42.804Z,6.20
2022-08-14T00:45:42.799Z,6.70
2022-08-14T00:46:42.797Z,6.90
2022-08-14T00:47:43.203Z,5.30
2022-08-14T00:48:42.795Z,6.00
2022-08-14T00:49:43.580Z,6.00
2022-08-14T00:50:42.796Z,6.60
2022-08-14T00:51:42.795Z,7.50
2022-08-14T00:52:42.916Z,6.00
2022-08-14T00:53:43.026Z,6.90
2022-08-14T00:54:42.836Z,7.40
2022-08-14T00:55:42.822Z,5.90
2022-08-14T00:56:42.795Z,4.60
2022-08-14T00:57:42.795Z,8.00
2022-08-14T00:58:44.963Z,5.10
2022-08-14T00:59:42.789Z,6.10
2022-08-14T01:00:47.327Z,6.80
2022-08-14T01:01:42.876Z,4.80
2022-08-14T01:02:42.995Z,5.70
2022-08-14T01:03:42.785Z,5.80
2022-08-14T01:04:53.861Z,6.90
2022-08-14T01:05:51.843Z,7.20
2022-08-14T01:06:42.787Z,5.10
2022-08-14T01:07:54.083Z,6.30
2022-08-14T01:08:51.195Z,7.20
2022-08-14T01:09:42.787Z,8.30
2022-08-14T01:10:42.785Z,7.50
2022-08-14T01:11:45.199Z,5.50
2022-08-14T01:12:43.114Z,6.80
2022-08-14T01:13:43.390Z,6.30
2022-08-14T01:14:42.783Z,6.20
2022-08-14T01:15:42.787Z,6.30
2022-08-14T01:16:42.799Z,6.50
2022-08-14T01:17:45.781Z,5.40
2022-08-14T01:18:42.778Z,7.10
2022-08-14T01:19:43.489Z,6.70
2022-08-14T01:20:42.780Z,7.30
2022-08-14T01:21:46.850Z,5.50
2022-08-14T01:22:42.993Z,5.70
2022-08-14T01:23:47.089Z,8.10
2022-08-14T01:24:43.543Z,7.20
2022-08-14T01:25:42.778Z,6.80
2022-08-14T01:26:42.775Z,6.40
2022-08-14T01:27:53.869Z,6.50
2022-08-14T01:28:56.083Z,6.60
2022-08-14T01:29:58.715Z,6.50
2022-08-14T01:30:42.774Z,6.40
2022-08-14T01:31:42.770Z,7.50
2022-08-14T01:32:42.956Z,7.10
2022-08-14T01:34:00.189Z,7.10
2022-08-14T01:35:17.957Z,6.30
2022-08-14T01:36:02.901Z,5.80
2022-08-14T01:36:42.768Z,6.60
2022-08-14T01:37:44.105Z,7.20
2022-08-14T01:38:44.169Z,5.90
2022-08-14T01:39:42.828Z,6.00
2022-08-14T01:40:42.767Z,5.60
2022-08-14T01:41:43.353Z,7.10
2022-08-14T01:42:44.239Z,6.00
2022-08-14T01:43:42.773Z,7.50
2022-08-14T01:44:42.764Z,6.00
2022-08-14T01:45:42.759Z,7.70
2022-08-14T01:46:42.762Z,8.30
2022-08-14T01:47:42.761Z,5.90
2022-08-14T01:48:42.757Z,6.80
2022-08-14T01:49:45.982Z,6.70
2022-08-14T01:50:42.759Z,7.40
2022-08-14T01:51:42.762Z,10.80
2022-08-14T01:52:58.649Z,6.50
2022-08-14T01:53:42.755Z,8.10
2022-08-14T01:54:42.767Z,8.20
2022-08-14T01:55:42.763Z,6.20
2022-08-14T01:56:42.753Z,7.20
2022-08-14T01:57:55.267Z,6.20
2022-08-14T01:58:57.307Z,6.60
2022-08-14T01:59:43.862Z,7.60
2022-08-14T02:00:42.748Z,6.20
2022-08-14T02:01:58.078Z,6.80
2022-08-14T02:02:42.750Z,6.20
2022-08-14T02:03:42.745Z,8.10
2022-08-14T02:04:55.275Z,7.10
2022-08-14T02:05:42.748Z,7.90
2022-08-14T02:06:42.741Z,7.60
2022-08-14T02:07:55.336Z,6.00
2022-08-14T02:08:52.661Z,6.10
2022-08-14T02:09:42.745Z,6.50
2022-08-14T02:10:42.754Z,7.00
2022-08-14T02:11:42.738Z,7.00
2022-08-14T02:12:42.882Z,5.90
2022-08-14T02:13:43.157Z,6.10
2022-08-14T02:15:00.229Z,6.50
2022-08-14T02:15:43.735Z,6.90
2022-08-14T02:16:42.735Z,6.20
2022-08-14T02:17:42.734Z,6.40
2022-08-14T02:18:42.735Z,8.00
2022-08-14T02:19:42.778Z,6.60
2022-08-14T02:20:42.757Z,8.50
2022-08-14T02:21:46.931Z,6.20
2022-08-14T02:22:47.863Z,7.60
2022-08-14T02:23:42.728Z,8.30
2022-08-14T02:24:45.241Z,6.50
2022-08-14T02:25:42.729Z,6.70
2022-08-14T02:28:18.665Z,7.80
2022-08-14T02:28:25.655Z,6.10
2022-08-14T02:28:58.134Z,6.10
2022-08-14T02:29:59.510Z,6.30
2022-08-14T02:30:42.725Z,5.70
2022-08-14T02:31:43.832Z,6.30
2022-08-14T02:32:42.723Z,6.10
2022-08-14T02:33:42.722Z,8.20
2022-08-14T02:34:42.723Z,7.50
2022-08-14T02:35:42.723Z,5.80
2022-08-14T02:37:06.220Z,6.40
2022-08-14T02:37:48.063Z,6.20
2022-08-14T02:38:42.719Z,8.00
2022-08-14T02:39:42.748Z,5.90
2022-08-14T02:40:42.721Z,7.20
2022-08-14T02:41:52.468Z,7.50
2022-08-14T02:42:42.715Z,6.20
2022-08-14T02:43:48.311Z,6.30
2022-08-14T02:44:42.963Z,7.90
2022-08-14T02:45:45.181Z,6.30
2022-08-14T02:46:42.711Z,5.70
2022-08-14T02:47:47.600Z,5.90
2022-08-14T02:49:02.469Z,6.90
2022-08-14T02:49:42.889Z,6.10
2022-08-14T02:50:42.709Z,5.70
2022-08-14T02:51:42.742Z,6.80
2022-08-14T02:52:57.535Z,6.90
2022-08-14T02:53:42.708Z,6.20
2022-08-14T02:54:42.713Z,7.00
2022-08-14T02:55:42.705Z,7.90
2022-08-14T02:57:16.656Z,6.10
2022-08-14T02:57:42.705Z,6.80
2022-08-14T02:58:42.726Z,6.00
2022-08-14T02:59:43.159Z,6.40
2022-08-14T03:00:42.715Z,5.90
2022-08-14T03:01:43.813Z,6.60
2022-08-14T03:02:56.748Z,6.20
2022-08-14T03:03:42.700Z,6.20
2022-08-14T03:04:42.702Z,7.10
2022-08-14T03:05:42.701Z,6.30
2022-08-14T03:06:58.169Z,6.20
2022-08-14T03:07:42.698Z,6.00
2022-08-14T03:08:45.991Z,6.10
2022-08-14T03:10:25.892Z,6.10
2022-08-14T03:10:48.620Z,6.10
2022-08-14T03:11:44.747Z,7.10
2022-08-14T03:12:42.695Z,7.00
2022-08-14T03:13:42.693Z,5.80
2022-08-14T03:14:42.693Z,6.90
2022-08-14T03:15:42.692Z,6.20
2022-08-14T03:16:42.692Z,8.00
2022-08-14T03:17:56.832Z,5.90
2022-08-14T03:18:42.692Z,7.80
2022-08-14T03:19:42.690Z,8.40
2022-08-14T03:20:42.687Z,6.40
2022-08-14T03:21:42.692Z,6.50
2022-08-14T03:22:42.751Z,9.90
2022-08-14T03:23:42.953Z,13.80
2022-08-14T03:24:42.686Z,9.60
2022-08-14T03:25:42.686Z,9.70
2022-08-14T03:26:42.683Z,6.90
2022-08-14T03:27:47.945Z,9.30
2022-08-14T03:28:42.688Z,7.80
2022-08-14T03:29:42.679Z,9.00
2022-08-14T03:30:42.682Z,7.70
2022-08-14T03:31:42.680Z,6.60
2022-08-14T03:32:42.881Z,6.70
2022-08-14T03:33:43.035Z,8.70
2022-08-14T03:34:47.962Z,7.80
2022-08-14T03:36:07.592Z,6.50
2022-08-14T03:37:38.764Z,7.60
2022-08-14T03:39:10.574Z,7.00
2022-08-14T03:39:13.062Z,6.70
2022-08-14T03:39:42.788Z,7.50
2022-08-14T03:40:42.676Z,6.30
2022-08-14T03:41:42.676Z,7.30
2022-08-14T03:42:42.671Z,6.50
2022-08-14T03:43:42.671Z,6.70
2022-08-14T03:45:19.032Z,7.50
2022-08-14T03:45:47.975Z,6.80
2022-08-14T03:46:54.331Z,7.00
2022-08-14T03:47:56.164Z,7.80
2022-08-14T03:48:42.669Z,7.80
2022-08-14T03:49:42.702Z,8.00
2022-08-14T03:50:42.670Z,7.30
2022-08-14T03:51:42.666Z,6.80
2022-08-14T03:52:42.666Z,7.10
2022-08-14T03:53:42.664Z,7.50
2022-08-14T03:54:42.664Z,7.00
2022-08-14T03:55:42.667Z,6.80
2022-08-14T03:56:42.662Z,6.70
2022-08-14T03:57:42.780Z,7.40
2022-08-14T03:58:42.667Z,6.40
2022-08-14T03:59:42.702Z,6.40
2022-08-14T04:00:45.069Z,10.30
2022-08-14T04:01:57.859Z,7.30
2022-08-14T04:02:47.084Z,6.90
2022-08-14T04:03:42.655Z,7.10
2022-08-14T04:04:42.658Z,6.40
2022-08-14T04:05:48.434Z,6.40
2022-08-14T04:06:48.536Z,6.60
2022-08-14T04:07:49.658Z,6.90
2022-08-14T04:08:42.653Z,6.70
2022-08-14T04:09:42.651Z,6.40
2022-08-14T04:10:42.652Z,6.30
2022-08-14T04:11:42.650Z,6.40
2022-08-14T04:12:42.899Z,6.60
2022-08-14T04:13:42.653Z,6.40
2022-08-14T04:14:42.650Z,7.50
2022-08-14T04:16:01.230Z,6.70
2022-08-14T04:16:42.645Z,6.60
2022-08-14T04:17:42.647Z,6.80
2022-08-14T04:18:42.646Z,6.80
2022-08-14T04:19:42.642Z,7.70
2022-08-14T04:20:51.892Z,7.60
2022-08-14T04:22:01.791Z,6.90
2022-08-14T04:22:42.742Z,6.90
2022-08-14T04:23:42.641Z,7.50
2022-08-14T04:24:42.642Z,7.00
2022-08-14T04:25:42.643Z,7.20
2022-08-14T04:26:43.393Z,6.50
2022-08-14T04:28:01.601Z,7.60
2022-08-14T04:29:06.809Z,7.20
2022-08-14T04:29:42.927Z,7.90
2022-08-14T04:30:42.638Z,6.90
2022-08-14T04:33:00.066Z,6.50
2022-08-14T04:33:01.074Z,7.50
2022-08-14T04:33:42.636Z,7.30
2022-08-14T04:34:42.637Z,7.70
2022-08-14T04:35:55.412Z,6.80
2022-08-14T04:36:42.632Z,7.20
2022-08-14T04:37:42.632Z,6.80
2022-08-14T04:38:42.660Z,7.20
2022-08-14T04:39:46.210Z,6.70
2022-08-14T04:40:42.633Z,7.70
2022-08-14T04:41:43.269Z,7.60
2022-08-14T04:42:47.088Z,7.00
2022-08-14T04:43:42.625Z,7.50
2022-08-14T04:44:42.627Z,7.20
2022-08-14T04:45:42.622Z,7.50
2022-08-14T04:46:55.748Z,8.00
2022-08-14T04:47:46.473Z,7.30
2022-08-14T04:48:43.671Z,8.30
2022-08-14T04:49:56.687Z,7.10
2022-08-14T04:50:44.712Z,6.90
2022-08-14T04:51:55.496Z,7.80
2022-08-14T04:52:42.846Z,7.60
2022-08-14T04:53:43.513Z,8.00
2022-08-14T04:54:42.614Z,7.50
2022-08-14T04:55:42.617Z,7.50
2022-08-14T04:56:42.710Z,7.30
2022-08-14T04:57:42.616Z,7.90
2022-08-14T04:58:42.615Z,7.30
2022-08-14T04:59:42.789Z,9.70
2022-08-14T05:00:42.614Z,7.30
2022-08-14T05:01:47.953Z,7.70
2022-08-14T05:02:42.737Z,7.80
2022-08-14T05:03:42.610Z,7.90
2022-08-14T05:04:45.270Z,8.10
2022-08-14T05:05:42.619Z,7.80
2022-08-14T05:06:42.610Z,8.70
2022-08-14T05:07:54.403Z,8.50
2022-08-14T05:08:50.529Z,7.80
2022-08-14T05:09:47.796Z,8.70
2022-08-14T05:10:44.167Z,7.90
2022-08-14T05:11:42.604Z,7.90
2022-08-14T05:13:14.381Z,8.60
2022-08-14T05:14:53.157Z,11.20
2022-08-14T05:15:42.601Z,8.00
2022-08-14T05:16:42.601Z,9.50
2022-08-14T05:17:43.979Z,9.60
2022-08-14T05:19:25.314Z,10.10
2022-08-14T05:19:44.805Z,10.30
2022-08-14T05:21:56.199Z,9.50
2022-08-14T05:22:01.367Z,9.60
2022-08-14T05:22:42.750Z,8.60
2022-08-14T05:23:42.597Z,10.50
2022-08-14T05:24:42.596Z,12.60
2022-08-14T05:25:42.601Z,12.90
2022-08-14T05:26:42.602Z,13.20
2022-08-14T05:27:42.599Z,13.60
2022-08-14T05:28:42.599Z,13.90
2022-08-14T05:29:42.599Z,14.10
2022-08-14T05:30:42.598Z,13.80
2022-08-14T05:31:42.597Z,13.90
2022-08-14T05:32:42.698Z,14.40
2022-08-14T05:33:42.598Z,13.80
2022-08-14T05:34:45.777Z,14.00
2022-08-14T05:35:42.722Z,13.80
2022-08-14T05:36:42.604Z,14.10
2022-08-14T05:37:42.880Z,14.30
2022-08-14T05:38:42.605Z,14.00
2022-08-14T05:39:42.682Z,14.10
2022-08-14T05:40:42.606Z,15.00
2022-08-14T05:41:53.383Z,15.00
2022-08-14T05:42:42.675Z,15.20
2022-08-14T05:43:42.609Z,15.70
2022-08-14T05:44:42.616Z,15.20
2022-08-14T05:45:42.612Z,15.80
2022-08-14T05:46:42.618Z,15.50
2022-08-14T05:47:43.050Z,15.50
2022-08-14T05:48:43.178Z,15.30
2022-08-14T05:49:42.622Z,15.40
2022-08-14T05:50:42.625Z,15.30
2022-08-14T05:51:42.624Z,16.10
2022-08-14T05:52:42.628Z,15.90
2022-08-14T05:53:42.670Z,15.90
2022-08-14T05:54:42.633Z,16.00
2022-08-14T05:55:42.858Z,16.30
2022-08-14T05:56:42.637Z,16.50
2022-08-14T05:57:42.643Z,16.30
2022-08-14T05:58:42.643Z,16.00
2022-08-14T05:59:42.650Z,16.50
2022-08-14T06:00:42.645Z,16.50
2022-08-14T06:01:42.705Z,16.40
2022-08-14T06:02:42.956Z,16.30
2022-08-14T06:03:42.652Z,16.50
2022-08-14T06:04:42.657Z,16.80
2022-08-14T06:05:42.657Z,16.30
2022-08-14T06:06:42.662Z,16.90
2022-08-14T06:07:42.664Z,16.50
2022-08-14T06:08:42.664Z,16.90
2022-08-14T06:09:42.669Z,16.10
2022-08-14T06:10:42.669Z,16.90
2022-08-14T06:11:42.673Z,17.70
2022-08-14T06:12:56.500Z,16.80
2022-08-14T06:13:45.221Z,16.70
2022-08-14T06:14:42.688Z,16.80
2022-08-14T06:15:42.687Z,16.40
2022-08-14T06:16:42.688Z,16.20
2022-08-14T06:17:46.106Z,16.10
2022-08-14T06:18:42.781Z,16.10
2022-08-14T06:19:42.720Z,16.00
2022-08-14T06:20:42.705Z,16.70
2022-08-14T06:21:42.707Z,16.80
2022-08-14T06:22:42.793Z,16.90
2022-08-14T06:23:42.719Z,17.00
2022-08-14T06:24:44.121Z,17.40
2022-08-14T06:25:42.721Z,17.80
2022-08-14T06:26:42.725Z,17.20
2022-08-14T06:27:42.732Z,17.10
2022-08-14T06:28:45.589Z,16.80
2022-08-14T06:29:42.739Z,16.50
2022-08-14T06:30:47.091Z,16.60
2022-08-14T06:31:42.745Z,17.40
2022-08-14T06:32:42.754Z,16.30
2022-08-14T06:35:02.186Z,16.50
2022-08-14T06:35:04.192Z,22.90
2022-08-14T06:35:42.757Z,15.70
2022-08-14T06:36:42.766Z,15.90
2022-08-14T06:37:42.767Z,16.00
2022-08-14T06:38:42.773Z,15.60
2022-08-14T06:39:42.776Z,16.20
2022-08-14T06:40:42.993Z,15.80
2022-08-14T06:41:57.681Z,16.10
2022-08-14T06:42:42.954Z,15.70
2022-08-14T06:43:45.330Z,15.50
2022-08-14T06:44:42.796Z,15.30
2022-08-14T06:45:42.798Z,15.00
2022-08-14T06:46:42.803Z,15.60
2022-08-14T06:47:43.753Z,15.40
2022-08-14T06:48:42.812Z,14.60
2022-08-14T06:49:48.498Z,14.30
2022-08-14T06:50:42.819Z,14.20
2022-08-14T06:51:44.873Z,14.40
2022-08-14T06:52:50.372Z,13.80
2022-08-14T06:53:42.832Z,13.00
2022-08-14T06:54:42.839Z,11.90
2022-08-14T06:55:58.111Z,11.20
2022-08-14T06:56:44.438Z,10.50
2022-08-14T06:57:42.853Z,10.20
2022-08-14T06:58:42.858Z,9.80
2022-08-14T06:59:43.135Z,10.10
2022-08-14T07:00:42.865Z,9.80
2022-08-14T07:01:42.944Z,9.10
2022-08-14T07:02:43.613Z,9.40
2022-08-14T07:03:42.880Z,8.10
2022-08-14T07:04:42.959Z,8.00
2022-08-14T07:05:55.819Z,8.60
2022-08-14T07:06:45.528Z,8.10
2022-08-14T07:07:42.898Z,9.10
2022-08-14T07:08:42.902Z,7.80
2022-08-14T07:09:50.770Z,7.90
2022-08-14T07:10:42.912Z,8.70
2022-08-14T07:11:42.919Z,7.40
2022-08-14T07:13:01.157Z,7.70
2022-08-14T07:13:42.930Z,7.80
2022-08-14T07:14:42.936Z,8.20
2022-08-14T07:15:42.936Z,8.30
2022-08-14T07:16:42.946Z,8.20
2022-08-14T07:17:42.950Z,8.30
2022-08-14T07:18:42.955Z,6.90
2022-08-14T07:19:42.959Z,7.80
2022-08-14T07:20:42.978Z,7.50
2022-08-14T07:21:42.968Z,8.00
2022-08-14T07:22:56.433Z,6.80
2022-08-14T07:23:44.153Z,6.60
2022-08-14T07:24:42.988Z,7.40
2022-08-14T07:25:43.587Z,7.50
2022-08-14T07:26:42.997Z,8.20
2022-08-14T07:27:43.018Z,9.80
2022-08-14T07:28:43.885Z,7.10
2022-08-14T07:29:43.010Z,8.10
2022-08-14T07:30:50.916Z,6.70
2022-08-14T07:31:43.024Z,6.80
2022-08-14T07:32:43.027Z,7.40
2022-08-14T07:33:45.510Z,7.20
2022-08-14T07:34:43.077Z,7.60
2022-08-14T07:35:57.606Z,9.00
2022-08-14T07:36:58.094Z,7.00
2022-08-14T07:37:43.055Z,9.00
2022-08-14T07:38:43.061Z,7.30
2022-08-14T07:39:43.513Z,6.90
2022-08-14T07:40:43.072Z,8.60
2022-08-14T07:41:43.075Z,8.90
2022-08-14T07:42:43.178Z,7.40
2022-08-14T07:43:43.088Z,7.20
2022-08-14T07:44:46.139Z,7.20
2022-08-14T07:45:43.101Z,8.30
2022-08-14T07:46:43.106Z,8.70
2022-08-14T07:47:43.111Z,9.00
2022-08-14T07:48:43.118Z,7.50
2022-08-14T07:49:43.483Z,8.60
2022-08-14T07:50:43.131Z,8.00
2022-08-14T07:51:43.139Z,9.00
2022-08-14T07:52:43.295Z,7.50
2022-08-14T07:53:43.149Z,8.90
2022-08-14T07:54:43.156Z,7.30
2022-08-14T07:55:43.159Z,8.70
2022-08-14T07:56:47.762Z,8.20
2022-08-14T07:57:43.171Z,7.80
2022-08-14T07:58:51.607Z,9.20
2022-08-14T07:59:44.390Z,8.80
2022-08-14T08:00:43.191Z,8.00
2022-08-14T08:01:51.213Z,8.80
2022-08-14T08:02:43.321Z,9.40
2022-08-14T08:03:43.241Z,7.00
2022-08-14T08:04:43.213Z,7.90
2022-08-14T08:05:43.217Z,8.60
2022-08-14T08:06:43.223Z,9.10
2022-08-14T08:07:43.228Z,8.00
2022-08-14T08:08:43.232Z,8.10
2022-08-14T08:09:43.292Z,8.60
2022-08-14T08:11:01.919Z,10.00
2022-08-14T08:11:43.250Z,8.00
2022-08-14T08:12:43.397Z,7.80
2022-08-14T08:13:48.991Z,6.50
2022-08-14T08:14:56.701Z,7.90
2022-08-14T08:15:43.267Z,8.20
2022-08-14T08:16:43.272Z,6.80
2022-08-14T08:17:53.835Z,6.50
2022-08-14T08:18:43.286Z,8.00
2022-08-14T08:19:43.286Z,11.80
2022-08-14T08:20:43.289Z,7.40
2022-08-14T08:21:43.582Z,11.30
2022-08-14T08:22:47.969Z,6.60
2022-08-14T08:23:50.968Z,7.60
2022-08-14T08:24:43.306Z,9.20
2022-08-14T08:25:43.311Z,7.40
2022-08-14T08:26:43.317Z,6.40
2022-08-14T08:27:44.895Z,5.90
2022-08-14T08:28:43.823Z,9.30
2022-08-14T08:29:43.332Z,7.60
2022-08-14T08:30:45.080Z,10.30
2022-08-14T08:31:48.446Z,8.40
2022-08-14T08:32:43.511Z,7.70
2022-08-14T08:33:43.348Z,6.90
2022-08-14T08:34:43.346Z,8.70
2022-08-14T08:35:46.789Z,7.60
2022-08-14T08:36:44.931Z,9.10
2022-08-14T08:37:43.662Z,8.50
2022-08-14T08:39:18.666Z,8.20
2022-08-14T08:40:02.333Z,9.50
2022-08-14T08:40:43.402Z,6.80
2022-08-14T08:41:43.425Z,7.40
2022-08-14T08:42:44.986Z,7.30
2022-08-14T08:43:45.883Z,8.00
2022-08-14T08:44:43.383Z,8.00
2022-08-14T08:45:43.385Z,6.50
2022-08-14T08:46:43.388Z,7.40
2022-08-14T08:47:43.388Z,6.10
2022-08-14T08:48:50.167Z,9.90
2022-08-14T08:49:48.278Z,5.70
2022-08-14T08:50:43.402Z,11.00
2022-08-14T08:51:43.713Z,7.30
2022-08-14T08:52:46.730Z,8.30
2022-08-14T08:53:43.414Z,7.10
2022-08-14T08:54:43.411Z,7.40
2022-08-14T08:55:43.418Z,7.20
2022-08-14T08:56:43.419Z,7.30
2022-08-14T08:57:43.428Z,5.80
2022-08-14T08:58:43.425Z,6.00
2022-08-14T08:59:43.437Z,4.50
2022-08-14T09:00:43.443Z,5.60
2022-08-14T09:01:43.435Z,10.70
2022-08-14T09:02:43.675Z,6.60
2022-08-14T09:03:44.290Z,10.00
2022-08-14T09:04:45.475Z,7.20
2022-08-14T09:05:43.999Z,7.80
2022-08-14T09:07:01.115Z,5.40
2022-08-14T09:07:43.453Z,6.50
2022-08-14T09:08:43.457Z,10.10
2022-08-14T09:09:54.202Z,8.80
2022-08-14T09:10:43.463Z,9.30
2022-08-14T09:11:43.467Z,7.30
2022-08-14T09:12:46.841Z,6.20
2022-08-14T09:13:43.472Z,7.30
2022-08-14T09:14:43.482Z,6.70
2022-08-14T09:15:43.475Z,10.70
2022-08-14T09:16:47.847Z,5.60
2022-08-14T09:17:43.490Z,9.10
2022-08-14T09:18:43.486Z,6.30
2022-08-14T09:19:43.491Z,5.50
2022-08-14T09:20:43.493Z,6.40
2022-08-14T09:21:43.494Z,10.40
2022-08-14T09:22:47.536Z,6.60
2022-08-14T09:24:27.459Z,6.30
2022-08-14T09:24:44.027Z,5.70
2022-08-14T09:25:59.743Z,7.70
2022-08-14T09:26:43.843Z,8.80
2022-08-14T09:27:43.519Z,5.40
2022-08-14T09:28:43.517Z,10.40
2022-08-14T09:29:43.524Z,6.30
2022-08-14T09:30:43.525Z,7.50
2022-08-14T09:31:52.817Z,5.10
2022-08-14T09:32:59.646Z,6.70
2022-08-14T09:33:56.409Z,8.90
2022-08-14T09:34:47.443Z,7.10
2022-08-14T09:35:43.538Z,9.30
2022-08-14T09:36:43.715Z,10.00
2022-08-14T09:37:43.547Z,8.80
2022-08-14T09:38:43.551Z,7.20
2022-08-14T09:39:43.694Z,7.20
2022-08-14T09:40:43.554Z,6.20
2022-08-14T09:42:20.658Z,5.20
2022-08-14T09:42:45.151Z,5.90
2022-08-14T09:43:43.563Z,5.30
2022-08-14T09:44:45.860Z,7.70
2022-08-14T09:45:52.797Z,6.50
2022-08-14T09:46:43.570Z,8.00
2022-08-14T09:47:43.575Z,7.50
2022-08-14T09:48:43.577Z,7.20
2022-08-14T09:49:43.582Z,5.20
2022-08-14T09:50:43.585Z,10.80
2022-08-14T09:51:44.666Z,5.40
2022-08-14T09:52:46.405Z,9.00
2022-08-14T09:54:19.165Z,6.60
2022-08-14T09:54:43.596Z,7.90
2022-08-14T09:55:43.602Z,7.20
2022-08-14T09:56:43.610Z,7.30
2022-08-14T09:57:43.617Z,6.90
2022-08-14T09:58:43.611Z,6.10
2022-08-14T09:59:43.614Z,5.50
2022-08-14T10:00:43.619Z,8.20
2022-08-14T10:01:43.620Z,6.20
2022-08-14T10:02:45.685Z,8.50
2022-08-14T10:03:43.627Z,7.80
2022-08-14T10:04:46.233Z,7.10
2022-08-14T10:05:43.633Z,7.20
2022-08-14T10:06:43.638Z,7.30
2022-08-14T10:07:47.459Z,6.90
2022-08-14T10:10:23.911Z,9.30
2022-08-14T10:11:15.303Z,6.80
2022-08-14T10:13:19.306Z,5.40
2022-08-14T10:14:29.267Z,7.20
2022-08-14T10:16:27.251Z,8.70
2022-08-14T10:17:23.288Z,8.10
2022-08-14T10:19:16.219Z,7.70
2022-08-14T10:20:39.640Z,7.50
2022-08-14T10:23:12.881Z,6.50
2022-08-14T10:23:20.210Z,7.10
2022-08-14T10:25:24.201Z,6.40
2022-08-14T10:26:28.494Z,6.00
2022-08-14T10:28:39.341Z,6.10
2022-08-14T10:29:28.194Z,6.70
2022-08-14T10:31:25.666Z,5.50
2022-08-14T10:32:28.736Z,5.60
2022-08-14T10:34:29.170Z,6.90
2022-08-14T10:35:31.746Z,8.00
2022-08-14T10:37:29.140Z,7.50
2022-08-14T10:38:29.130Z,9.20
2022-08-14T10:40:38.629Z,6.10
2022-08-14T10:41:33.124Z,10.60
2022-08-14T10:43:37.129Z,9.30
2022-08-14T10:44:37.121Z,6.70
2022-08-14T10:47:37.900Z,7.50
2022-08-14T10:47:40.777Z,5.10
2022-08-14T10:49:23.486Z,7.50
2022-08-14T10:50:23.478Z,6.50
2022-08-14T10:51:23.478Z,6.30
2022-08-14T10:52:23.482Z,6.20
2022-08-14T10:53:23.487Z,6.10
2022-08-14T10:54:36.005Z,5.70
2022-08-14T10:55:23.493Z,6.30
2022-08-14T10:56:34.298Z,4.30
2022-08-14T10:57:23.513Z,6.50
2022-08-14T10:58:23.503Z,4.30
2022-08-14T10:59:23.507Z,7.00
2022-08-14T11:00:30.397Z,4.70
2022-08-14T11:01:23.524Z,4.70
2022-08-14T11:02:45.067Z,5.70
2022-08-14T11:03:26.604Z,7.90
2022-08-14T11:04:26.188Z,6.40
2022-08-14T11:05:23.540Z,5.90
2022-08-14T11:06:24.627Z,7.30
2022-08-14T11:07:23.540Z,6.00
2022-08-14T11:08:23.539Z,5.60
2022-08-14T11:09:23.547Z,6.10
2022-08-14T11:10:23.552Z,5.50
2022-08-14T11:11:23.549Z,6.70
2022-08-14T11:12:44.130Z,6.60
2022-08-14T11:13:24.291Z,4.10
2022-08-14T11:14:26.526Z,6.00
2022-08-14T11:15:23.564Z,5.80
2022-08-14T11:16:23.569Z,6.40
2022-08-14T11:17:23.576Z,5.40
2022-08-14T11:18:32.221Z,8.30
2022-08-14T11:19:25.056Z,3.90
2022-08-14T11:20:23.966Z,4.50
2022-08-14T11:21:23.585Z,6.10
2022-08-14T11:22:52.589Z,8.70
2022-08-14T11:23:23.594Z,6.10
2022-08-14T11:24:54.384Z,7.50
2022-08-14T11:25:23.718Z,4.80
2022-08-14T11:26:23.611Z,6.00
2022-08-14T11:27:27.058Z,6.40
2022-08-14T11:28:48.612Z,4.80
2022-08-14T11:29:24.527Z,8.50
2022-08-14T11:30:50.077Z,6.30
2022-08-14T11:31:24.140Z,6.80
2022-08-14T11:32:23.628Z,7.50
2022-08-14T11:33:23.629Z,6.80
2022-08-14T11:34:32.519Z,4.70
2022-08-14T11:35:23.637Z,5.50
2022-08-14T11:36:23.641Z,5.90
2022-08-14T11:37:36.956Z,4.50
2022-08-14T11:38:23.647Z,5.60
2022-08-14T11:39:34.878Z,5.80
2022-08-14T11:40:28.640Z,8.10
2022-08-14T11:41:24.711Z,5.30
2022-08-14T11:42:56.795Z,5.70
2022-08-14T11:43:29.384Z,3.90
2022-08-14T11:44:45.477Z,6.10
2022-08-14T11:45:23.766Z,5.60
2022-08-14T11:46:29.946Z,4.40
2022-08-14T11:47:23.681Z,3.30
2022-08-14T11:49:01.676Z,5.60
2022-08-14T11:49:23.687Z,5.00
2022-08-14T11:50:33.528Z,7.40
2022-08-14T11:51:24.425Z,4.60
2022-08-14T11:52:23.700Z,6.10
2022-08-14T11:53:23.701Z,7.00
2022-08-14T11:54:34.027Z,5.30
2022-08-14T11:55:25.670Z,5.10
2022-08-14T11:56:25.524Z,5.20
2022-08-14T11:57:23.723Z,4.70
2022-08-14T11:58:24.560Z,7.00
2022-08-14T11:59:26.299Z,8.00
2022-08-14T12:00:31.962Z,5.60
2022-08-14T12:01:23.734Z,6.30
2022-08-14T12:03:01.325Z,4.90
2022-08-14T12:03:27.074Z,6.30
2022-08-14T12:04:33.320Z,5.80
2022-08-14T12:05:23.749Z,6.80
2022-08-14T12:06:29.535Z,6.10
2022-08-14T12:07:23.757Z,5.10
2022-08-14T12:08:24.503Z,5.80
2022-08-14T12:09:23.771Z,5.30
2022-08-14T12:10:27.373Z,5.70
2022-08-14T12:11:23.771Z,5.40
2022-08-14T12:12:36.204Z,5.30
2022-08-14T12:13:27.443Z,8.00
2022-08-14T12:14:30.778Z,5.30
2022-08-14T12:15:23.790Z,7.40
2022-08-14T12:16:23.789Z,4.20
2022-08-14T12:17:23.976Z,5.80
2022-08-14T12:18:23.796Z,4.30
2022-08-14T12:19:23.803Z,4.80
2022-08-14T12:20:32.204Z,4.60
2022-08-14T12:21:23.812Z,6.10
2022-08-14T12:22:29.652Z,6.00
2022-08-14T12:23:23.819Z,6.50
2022-08-14T12:24:36.144Z,5.00
2022-08-14T12:25:24.680Z,3.90
2022-08-14T12:26:39.147Z,6.10
2022-08-14T12:27:25.099Z,6.30
2022-08-14T12:28:27.141Z,5.80
2022-08-14T12:29:23.839Z,4.80
2022-08-14T12:30:23.839Z,4.50
2022-08-14T12:31:23.848Z,6.30
2022-08-14T12:32:23.856Z,4.40
2022-08-14T12:33:25.299Z,4.40
2022-08-14T12:34:24.389Z,6.10
2022-08-14T12:35:23.862Z,7.30
2022-08-14T12:36:23.865Z,5.00
2022-08-14T12:37:23.870Z,4.60
2022-08-14T12:38:23.875Z,4.90
2022-08-14T12:39:24.166Z,5.50
2022-08-14T12:40:23.883Z,4.20
2022-08-14T12:41:24.099Z,3.30
2022-08-14T12:42:27.139Z,4.80
2022-08-14T12:43:23.889Z,6.00
2022-08-14T12:44:23.894Z,8.80
2022-08-14T12:45:23.900Z,5.30
2022-08-14T12:46:27.138Z,6.10
2022-08-14T12:47:23.907Z,6.50
2022-08-14T12:48:31.560Z,6.00
2022-08-14T12:49:26.011Z,6.20
2022-08-14T12:50:23.923Z,5.50
2022-08-14T12:51:27.014Z,6.50
2022-08-14T12:52:36.118Z,5.10
2022-08-14T12:53:23.933Z,4.40
2022-08-14T12:54:28.233Z,5.70
2022-08-14T12:55:32.680Z,6.00
2022-08-14T12:56:33.956Z,6.00
2022-08-14T12:57:23.955Z,5.10
2022-08-14T12:58:35.282Z,6.90
2022-08-14T12:59:23.962Z,5.00
2022-08-14T13:00:24.526Z,7.10
2022-08-14T13:01:24.017Z,5.10
2022-08-14T13:02:26.364Z,5.60
2022-08-14T13:03:23.973Z,6.20
2022-08-14T13:04:23.985Z,5.00
2022-08-14T13:05:23.989Z,8.80
2022-08-14T13:06:24.100Z,5.40
2022-08-14T13:07:24.265Z,5.50
2022-08-14T13:08:33.620Z,5.70
2022-08-14T13:09:24.001Z,5.20
2022-08-14T13:10:51.316Z,5.00
2022-08-14T13:11:24.281Z,6.10
2022-08-14T13:12:33.268Z,4.30
2022-08-14T13:13:24.087Z,6.30
2022-08-14T13:14:30.027Z,7.10
2022-08-14T13:15:24.030Z,6.70
2022-08-14T13:16:33.859Z,4.60
2022-08-14T13:17:24.040Z,7.10
2022-08-14T13:18:24.041Z,6.00
2022-08-14T13:19:24.434Z,6.90
2022-08-14T13:20:24.934Z,5.30
2022-08-14T13:21:24.052Z,6.10
2022-08-14T13:22:32.290Z,4.30
2022-08-14T13:23:30.520Z,4.80
2022-08-14T13:24:24.067Z,5.10
2022-08-14T13:25:24.070Z,7.60
2022-08-14T13:26:24.074Z,4.70
2022-08-14T13:27:24.079Z,5.90
2022-08-14T13:28:29.996Z,6.40
2022-08-14T13:29:24.082Z,3.90
2022-08-14T13:30:24.312Z,6.40